createdAt,value
2022-10-23T00:00:55.287Z,78.45
2022-10-23T00:02:28.299Z,78.32
2022-10-23T00:04:01.717Z,78.48
2022-10-23T00:05:33.854Z,78.03
2022-10-23T00:07:05.461Z,78.11
2022-10-23T00:08:37.986Z,77.89
2022-10-23T00:10:10.241Z,78.20
2022-10-23T00:11:42.226Z,78.38
2022-10-23T00:13:13.839Z,78.45
2022-10-23T00:14:45.421Z,78.44
2022-10-23T00:16:17.201Z,78.27
2022-10-23T00:17:50.424Z,78.45
2022-10-23T00:19:22.142Z,78.38
2022-10-23T00:20:53.806Z,78.21
2022-10-23T00:22:25.444Z,78.40
2022-10-23T00:23:57.471Z,78.53
2022-10-23T00:25:29.173Z,78.43
2022-10-23T00:27:00.799Z,78.69
2022-10-23T00:28:32.548Z,78.32
2022-10-23T00:30:06.060Z,78.63
2022-10-23T00:31:38.558Z,78.50
2022-10-23T00:33:11.556Z,78.43
2022-10-23T00:34:43.159Z,78.67
2022-10-23T00:36:16.650Z,78.62
2022-10-23T00:37:48.862Z,78.72
2022-10-23T00:39:20.463Z,78.97
2022-10-23T00:40:52.263Z,79.03
2022-10-23T00:42:24.193Z,78.95
2022-10-23T00:44:00.127Z,79.21
2022-10-23T00:45:34.286Z,79.09
2022-10-23T00:47:05.903Z,79.18
2022-10-23T00:48:38.877Z,78.97
2022-10-23T00:50:11.016Z,79.19
2022-10-23T00:51:47.161Z,79.21
2022-10-23T00:53:21.000Z,79.18
2022-10-23T00:54:52.782Z,79.08
2022-10-23T00:56:25.720Z,79.54
2022-10-23T00:57:57.551Z,79.31
2022-10-23T00:59:29.807Z,79.24
2022-10-23T01:01:01.584Z,79.52
2022-10-23T01:02:33.384Z,79.33
2022-10-23T01:04:07.943Z,79.15
2022-10-23T01:07:29.487Z,79.27
2022-10-23T01:09:11.224Z,79.49
2022-10-23T01:10:46.979Z,79.38
2022-10-23T01:12:26.746Z,79.56
2022-10-23T01:15:44.921Z,79.43
2022-10-23T01:17:23.566Z,79.77
2022-10-23T01:19:03.554Z,79.57
2022-10-23T01:20:40.501Z,79.97
2022-10-23T01:22:26.924Z,79.56
2022-10-23T01:24:19.722Z,79.98
2022-10-23T01:26:04.136Z,79.90
2022-10-23T01:27:42.763Z,80.13
2022-10-23T01:29:20.036Z,79.97
2022-10-23T01:30:53.739Z,80.30
2022-10-23T01:32:35.262Z,80.47
2022-10-23T01:34:13.089Z,80.47
2022-10-23T01:35:49.423Z,80.28
2022-10-23T01:37:27.155Z,80.32
2022-10-23T01:39:05.144Z,80.58
2022-10-23T01:40:44.065Z,80.61
2022-10-23T01:42:21.615Z,80.34
2022-10-23T01:44:01.403Z,80.51
2022-10-23T01:45:41.131Z,80.84
2022-10-23T01:47:18.877Z,80.62
2022-10-23T01:49:10.855Z,80.85
2022-10-23T01:50:44.127Z,81.06
2022-10-23T01:52:18.077Z,81.34
2022-10-23T01:53:55.885Z,81.30
2022-10-23T01:55:27.675Z,82.09
2022-10-23T01:57:02.604Z,81.76
2022-10-23T01:58:37.411Z,81.76
2022-10-23T02:00:14.134Z,81.66
2022-10-23T02:02:00.313Z,81.87
2022-10-23T02:03:35.403Z,81.61
2022-10-23T02:05:11.601Z,81.42
2022-10-23T02:06:43.265Z,81.51
2022-10-23T02:08:15.060Z,81.59
2022-10-23T02:09:47.584Z,81.67
2022-10-23T02:11:21.702Z,81.72
2022-10-23T02:12:59.450Z,81.45
2022-10-23T02:14:40.909Z,81.77
2022-10-23T02:16:21.934Z,81.65
2022-10-23T02:18:03.154Z,81.59
2022-10-23T02:19:42.712Z,81.69
2022-10-23T02:21:21.942Z,81.64
2022-10-23T02:23:00.229Z,81.61
2022-10-23T02:24:35.186Z,81.85
2022-10-23T02:26:17.650Z,82.03
2022-10-23T02:27:56.829Z,82.20
2022-10-23T02:29:35.052Z,82.40
2022-10-23T02:31:10.185Z,82.23
2022-10-23T02:32:48.291Z,82.22
2022-10-23T02:34:21.535Z,82.42
2022-10-23T02:35:53.236Z,82.42
2022-10-23T02:37:29.034Z,82.08
2022-10-23T02:39:00.876Z,82.33
2022-10-23T02:40:38.491Z,82.03
2022-10-23T02:42:20.357Z,81.97
2022-10-23T02:44:03.545Z,82.22
2022-10-23T02:45:44.472Z,82.26
2022-10-23T02:47:30.841Z,82.16
2022-10-23T02:49:13.519Z,82.26
2022-10-23T02:50:55.834Z,82.23
2022-10-23T02:52:33.012Z,81.97
2022-10-23T02:54:08.703Z,82.58
2022-10-23T02:55:56.017Z,82.09
2022-10-23T02:57:32.748Z,82.17
2022-10-23T02:59:09.298Z,81.94
2022-10-23T03:00:45.896Z,82.17
2022-10-23T03:02:22.927Z,81.73
2022-10-23T03:03:58.334Z,81.53
2022-10-23T03:05:35.698Z,81.49
2022-10-23T03:07:10.851Z,81.55
2022-10-23T03:08:43.861Z,81.58
2022-10-23T03:10:15.876Z,81.38
2022-10-23T03:11:47.478Z,81.60
2022-10-23T03:13:19.216Z,81.66
2022-10-23T03:14:51.175Z,81.30
2022-10-23T03:16:22.764Z,81.57
2022-10-23T03:17:57.545Z,81.63
2022-10-23T03:19:30.495Z,81.65
2022-10-23T03:21:04.737Z,81.46
2022-10-23T03:22:38.788Z,81.08
2022-10-23T03:24:11.555Z,81.21
2022-10-23T03:25:47.109Z,81.28
2022-10-23T03:27:32.550Z,81.53
2022-10-23T03:29:08.169Z,81.42
2022-10-23T03:30:46.068Z,81.44
2022-10-23T03:32:17.850Z,81.22
2022-10-23T03:33:49.812Z,81.23
2022-10-23T03:35:21.498Z,81.29
2022-10-23T03:36:54.555Z,81.39
2022-10-23T03:38:26.238Z,81.67
2022-10-23T03:39:57.872Z,81.58
2022-10-23T03:41:29.792Z,81.57
2022-10-23T03:43:01.576Z,81.55
2022-10-23T03:44:34.998Z,81.46
2022-10-23T03:46:09.796Z,81.75
2022-10-23T03:47:41.778Z,81.72
2022-10-23T03:49:13.693Z,81.82
2022-10-23T03:50:48.229Z,81.66
2022-10-23T03:52:21.324Z,81.72
2022-10-23T03:53:55.807Z,82.19
2022-10-23T03:55:28.157Z,81.90
2022-10-23T03:57:00.624Z,82.16
2022-10-23T03:58:32.294Z,81.98
2022-10-23T04:00:06.333Z,81.74
2022-10-23T04:01:47.983Z,81.74
2022-10-23T04:03:19.808Z,81.71
2022-10-23T04:04:51.481Z,81.97
2022-10-23T04:06:24.041Z,81.96
2022-10-23T04:08:01.933Z,81.85
2022-10-23T04:09:33.625Z,81.97
2022-10-23T04:11:05.649Z,81.56
2022-10-23T04:12:44.801Z,81.86
2022-10-23T04:14:17.224Z,81.49
2022-10-23T04:15:49.389Z,81.75
2022-10-23T04:17:21.691Z,81.75
2022-10-23T04:18:54.577Z,81.54
2022-10-23T04:20:26.190Z,81.31
2022-10-23T04:21:57.853Z,81.50
2022-10-23T04:23:30.821Z,81.26
2022-10-23T04:25:02.716Z,81.28
2022-10-23T04:26:36.030Z,81.31
2022-10-23T04:28:07.680Z,81.79
2022-10-23T04:29:42.819Z,81.77
2022-10-23T04:31:15.122Z,81.35
2022-10-23T04:32:50.317Z,81.46
2022-10-23T04:34:22.668Z,81.30
2022-10-23T04:35:54.359Z,81.76
2022-10-23T04:37:26.007Z,81.75
2022-10-23T04:38:58.965Z,81.69
2022-10-23T04:40:30.691Z,81.60
2022-10-23T04:42:02.288Z,81.77
2022-10-23T04:43:33.930Z,82.07
2022-10-23T04:45:08.262Z,82.14
2022-10-23T04:46:40.629Z,81.73
2022-10-23T04:48:12.203Z,82.05
2022-10-23T04:50:03.730Z,81.86
2022-10-23T04:51:54.164Z,82.13
2022-10-23T04:53:50.701Z,82.00
2022-10-23T04:56:01.977Z,82.53
2022-10-23T04:57:52.889Z,82.42
2022-10-23T04:59:28.445Z,82.54
2022-10-23T05:01:00.643Z,82.90
2022-10-23T05:02:33.503Z,82.92
2022-10-23T05:04:05.196Z,83.00
2022-10-23T05:05:41.777Z,82.74
2022-10-23T05:07:36.344Z,83.02
2022-10-23T05:09:34.220Z,83.01
2022-10-23T05:11:22.656Z,82.86
2022-10-23T05:12:55.633Z,82.89
2022-10-23T05:14:27.792Z,83.12
2022-10-23T05:16:00.628Z,82.79
2022-10-23T05:17:35.566Z,82.97
2022-10-23T05:19:10.802Z,82.90
2022-10-23T05:20:46.032Z,82.84
2022-10-23T05:22:18.628Z,82.87
2022-10-23T05:23:53.835Z,82.92
2022-10-23T05:25:26.895Z,82.99
2022-10-23T05:27:09.007Z,83.04
2022-10-23T05:28:43.152Z,83.22
2022-10-23T05:30:18.178Z,82.91
2022-10-23T05:31:54.597Z,82.98
2022-10-23T05:33:26.702Z,83.33
2022-10-23T05:34:59.426Z,83.17
2022-10-23T05:36:33.745Z,83.01
2022-10-23T05:38:07.126Z,83.13
2022-10-23T05:39:38.938Z,83.11
2022-10-23T05:41:15.158Z,83.34
2022-10-23T05:42:48.879Z,83.28
2022-10-23T05:44:24.701Z,83.09
2022-10-23T05:46:14.574Z,83.02
2022-10-23T05:47:51.746Z,83.11
2022-10-23T05:49:59.223Z,83.38
2022-10-23T05:51:51.064Z,83.41
2022-10-23T05:53:40.098Z,83.37
2022-10-23T05:55:26.840Z,83.17
2022-10-23T05:57:08.120Z,82.98
2022-10-23T05:58:50.487Z,83.27
2022-10-23T06:00:31.402Z,83.16
2022-10-23T06:02:22.704Z,82.92
2022-10-23T06:04:03.991Z,82.88
2022-10-23T06:05:52.840Z,82.82
2022-10-23T06:07:35.129Z,82.90
2022-10-23T06:09:09.737Z,82.68
2022-10-23T06:10:44.440Z,82.71
2022-10-23T06:12:16.879Z,82.59
2022-10-23T06:13:52.720Z,82.83
2022-10-23T06:15:26.144Z,82.54
2022-10-23T06:17:04.181Z,82.78
2022-10-23T06:18:44.557Z,82.99
2022-10-23T06:20:19.178Z,82.65
2022-10-23T06:21:59.285Z,82.77
2022-10-23T06:23:46.627Z,82.56
2022-10-23T06:25:35.778Z,82.35
2022-10-23T06:27:09.512Z,82.07
2022-10-23T06:28:47.045Z,82.30
2022-10-23T06:30:20.192Z,82.42
2022-10-23T06:31:53.988Z,82.79
2022-10-23T06:33:25.628Z,82.13
2022-10-23T06:34:57.329Z,82.14
2022-10-23T06:36:29.714Z,82.49
2022-10-23T06:38:10.564Z,82.31
2022-10-23T06:39:47.632Z,82.00
2022-10-23T06:41:23.018Z,81.86
2022-10-23T06:42:59.523Z,81.98
2022-10-23T06:44:34.119Z,81.88
2022-10-23T06:46:15.049Z,81.67
2022-10-23T06:48:01.869Z,81.57
2022-10-23T06:49:53.835Z,81.33
2022-10-23T06:51:29.482Z,81.55
2022-10-23T06:53:01.555Z,81.27
2022-10-23T06:54:33.292Z,80.93
2022-10-23T06:56:28.981Z,81.03
2022-10-23T06:58:00.765Z,80.85
2022-10-23T06:59:33.272Z,80.53
2022-10-23T07:01:07.728Z,80.65
2022-10-23T07:02:41.232Z,80.35
2022-10-23T07:04:14.513Z,80.30
2022-10-23T07:05:47.435Z,80.60
2022-10-23T07:07:19.969Z,80.24
2022-10-23T07:08:53.704Z,80.39
2022-10-23T07:11:03.622Z,80.28
2022-10-23T07:12:35.469Z,79.85
2022-10-23T07:14:32.131Z,80.10
2022-10-23T07:16:10.633Z,79.64
2022-10-23T07:17:43.747Z,79.48
2022-10-23T07:19:15.596Z,79.72
2022-10-23T07:21:05.641Z,79.18
2022-10-23T07:22:38.410Z,79.13
2022-10-23T07:24:17.163Z,78.80
2022-10-23T07:25:48.886Z,78.65
2022-10-23T07:27:26.367Z,78.67
2022-10-23T07:29:01.323Z,78.70
2022-10-23T07:30:33.284Z,78.29
2022-10-23T07:32:06.519Z,78.43
2022-10-23T07:34:17.720Z,77.85
2022-10-23T07:35:52.530Z,77.89
2022-10-23T07:37:30.427Z,77.17
2022-10-23T07:39:04.591Z,77.54
2022-10-23T07:40:37.770Z,77.14
2022-10-23T07:42:11.942Z,77.18
2022-10-23T07:43:45.509Z,76.85
2022-10-23T07:45:17.310Z,76.41
2022-10-23T07:46:50.750Z,76.52
2022-10-23T07:48:23.852Z,76.15
2022-10-23T07:50:14.653Z,76.16
2022-10-23T07:51:50.497Z,75.81
2022-10-23T07:53:25.255Z,75.56
2022-10-23T07:54:59.109Z,75.57
2022-10-23T07:56:34.204Z,75.17
2022-10-23T07:58:25.715Z,75.05
2022-10-23T08:00:11.813Z,75.18
2022-10-23T08:01:49.509Z,74.26
2022-10-23T08:03:24.357Z,74.11
2022-10-23T08:04:56.107Z,74.00
2022-10-23T08:06:38.848Z,73.84
2022-10-23T08:08:10.517Z,73.02
2022-10-23T08:09:44.622Z,72.46
2022-10-23T08:11:24.755Z,72.44
2022-10-23T08:12:56.706Z,72.35
2022-10-23T08:14:44.550Z,72.17
2022-10-23T08:16:16.960Z,71.90
2022-10-23T08:18:15.018Z,71.20
2022-10-23T08:19:49.532Z,71.23
2022-10-23T08:21:23.614Z,71.06
2022-10-23T08:22:58.549Z,70.10
2022-10-23T08:24:31.290Z,69.87
2022-10-23T08:26:05.331Z,69.96
2022-10-23T08:27:38.009Z,69.60
2022-10-23T08:29:10.261Z,69.86
2022-10-23T08:30:41.990Z,70.04
2022-10-23T08:32:13.785Z,69.41
2022-10-23T08:34:05.077Z,69.44
2022-10-23T08:35:37.811Z,69.41
2022-10-23T08:37:10.546Z,69.11
2022-10-23T08:38:43.550Z,69.63
2022-10-23T08:40:21.990Z,69.21
2022-10-23T08:42:21.019Z,68.84
2022-10-23T08:44:01.314Z,68.60
2022-10-23T08:45:44.853Z,68.47
2022-10-23T08:47:37.495Z,68.13
2022-10-23T08:49:36.797Z,67.50
2022-10-23T08:51:16.214Z,67.74
2022-10-23T08:52:52.270Z,67.78
2022-10-23T08:54:30.104Z,67.35
2022-10-23T08:56:04.677Z,66.87
2022-10-23T08:57:43.777Z,66.38
2022-10-23T08:59:25.046Z,66.66
2022-10-23T09:00:56.802Z,66.80
2022-10-23T09:02:32.660Z,66.75
2022-10-23T09:04:05.011Z,66.27
2022-10-23T09:05:50.358Z,65.94
2022-10-23T09:07:36.365Z,65.51
2022-10-23T09:09:49.993Z,65.27
2022-10-23T09:11:31.964Z,65.09
2022-10-23T09:13:27.520Z,64.79
2022-10-23T09:15:20.041Z,64.75
2022-10-23T09:17:05.287Z,65.03
2022-10-23T09:18:37.894Z,64.42
2022-10-23T09:20:18.819Z,63.88
2022-10-23T09:21:50.558Z,63.70
2022-10-23T09:23:24.112Z,63.96
2022-10-23T09:24:55.735Z,64.25
2022-10-23T09:26:28.803Z,64.47
2022-10-23T09:28:05.292Z,64.27
2022-10-23T09:29:37.457Z,64.53
2022-10-23T09:31:11.751Z,63.96
2022-10-23T09:32:43.550Z,64.32
2022-10-23T09:34:20.221Z,63.92
2022-10-23T09:35:54.706Z,64.19
2022-10-23T09:37:28.444Z,64.28
2022-10-23T09:39:00.942Z,64.48
2022-10-23T09:40:40.338Z,63.95
2022-10-23T09:42:22.952Z,63.55
2022-10-23T09:44:18.201Z,63.74
2022-10-23T09:45:58.162Z,63.77
2022-10-23T09:47:29.940Z,63.62
2022-10-23T09:49:03.580Z,63.94
2022-10-23T09:50:37.798Z,63.69
2022-10-23T09:52:24.090Z,63.55
2022-10-23T09:53:58.746Z,63.65
2022-10-23T09:55:30.563Z,63.36
2022-10-23T09:57:06.592Z,63.04
2022-10-23T09:58:51.908Z,62.88
2022-10-23T10:00:25.776Z,63.01
2022-10-23T10:01:59.445Z,62.89
2022-10-23T10:03:52.624Z,62.85
2022-10-23T10:05:31.072Z,62.78
2022-10-23T10:07:13.380Z,62.67
2022-10-23T10:08:50.712Z,62.44
2022-10-23T10:10:23.503Z,62.74
2022-10-23T10:12:00.094Z,62.85
2022-10-23T10:13:54.114Z,62.47
2022-10-23T10:15:32.212Z,62.71
2022-10-23T10:17:11.604Z,62.75
2022-10-23T10:18:50.596Z,62.53
2022-10-23T10:20:38.106Z,62.69
2022-10-23T10:22:26.125Z,62.82
2022-10-23T10:24:02.735Z,63.01
2022-10-23T10:25:37.555Z,62.98
2022-10-23T10:27:20.752Z,63.02
2022-10-23T10:29:06.204Z,62.59
2022-10-23T10:30:49.575Z,62.78
2022-10-23T10:32:34.539Z,62.55
2022-10-23T10:34:15.254Z,62.71
2022-10-23T10:35:56.774Z,62.74
2022-10-23T10:37:44.922Z,62.61
2022-10-23T10:39:31.955Z,63.01
2022-10-23T10:41:22.377Z,62.54
2022-10-23T10:43:20.041Z,62.58
2022-10-23T10:45:08.080Z,62.59
2022-10-23T10:46:51.391Z,62.83
2022-10-23T10:48:38.986Z,62.64
2022-10-23T10:50:34.530Z,62.67
2022-10-23T10:52:25.830Z,63.02
2022-10-23T10:54:24.760Z,62.75
2022-10-23T10:55:59.236Z,63.26
2022-10-23T10:57:33.741Z,62.85
2022-10-23T10:59:14.723Z,63.27
2022-10-23T11:00:52.366Z,63.23
2022-10-23T11:02:30.120Z,63.36
2022-10-23T11:04:06.708Z,63.30
2022-10-23T11:05:43.063Z,63.46
2022-10-23T11:07:19.423Z,63.46
2022-10-23T11:08:58.096Z,63.66
2022-10-23T11:10:44.397Z,63.61
2022-10-23T11:12:20.276Z,63.53
2022-10-23T11:13:55.780Z,63.71
2022-10-23T11:15:34.103Z,63.78
2022-10-23T11:17:12.879Z,63.86
2022-10-23T11:18:53.788Z,64.05
2022-10-23T11:20:38.827Z,64.23
2022-10-23T11:22:16.588Z,64.45
2022-10-23T11:24:35.404Z,63.99
2022-10-23T11:26:20.404Z,63.89
2022-10-23T11:28:13.753Z,63.97
2022-10-23T11:30:13.574Z,64.00
2022-10-23T11:31:55.274Z,64.10
2022-10-23T11:34:00.553Z,64.05
2022-10-23T11:35:48.838Z,64.38
2022-10-23T11:37:22.527Z,64.40
2022-10-23T11:38:59.056Z,64.39
2022-10-23T11:40:30.840Z,64.25
2022-10-23T11:42:14.808Z,64.08
2022-10-23T11:43:49.903Z,64.23
2022-10-23T11:45:33.158Z,63.94
2022-10-23T11:47:25.154Z,63.69
2022-10-23T11:48:58.366Z,63.47
2022-10-23T11:50:33.575Z,62.37
2022-10-23T11:52:22.204Z,61.69
2022-10-23T11:54:05.472Z,62.05
2022-10-23T11:55:38.175Z,62.02
2022-10-23T11:57:13.042Z,61.56
2022-10-23T11:58:47.069Z,61.50
2022-10-23T12:00:21.936Z,61.66
2022-10-23T12:01:56.775Z,60.68
2022-10-23T12:03:38.642Z,60.80
2022-10-23T12:05:31.532Z,60.71
2022-10-23T12:07:15.067Z,60.99
2022-10-23T12:08:51.129Z,60.88
2022-10-23T12:10:28.651Z,60.62
2022-10-23T12:12:28.187Z,60.15
2022-10-23T12:14:00.046Z,60.29
2022-10-23T12:15:32.419Z,59.74
2022-10-23T12:17:28.751Z,59.56
2022-10-23T12:19:17.718Z,59.49
2022-10-23T12:20:54.264Z,60.33
2022-10-23T12:24:31.660Z,60.26
2022-10-23T12:26:45.987Z,60.19
2022-10-23T12:28:30.466Z,59.88
2022-10-23T12:30:22.510Z,60.03
2022-10-23T12:32:00.246Z,59.90
2022-10-23T12:33:39.985Z,59.97
2022-10-23T12:35:30.057Z,59.61
2022-10-23T12:37:17.047Z,58.82
2022-10-23T12:38:49.846Z,58.93
2022-10-23T12:40:22.524Z,59.55
2022-10-23T12:41:54.670Z,59.44
2022-10-23T12:43:28.861Z,59.05
2022-10-23T12:45:03.658Z,59.12
2022-10-23T12:46:39.387Z,59.31
2022-10-23T12:48:19.369Z,59.44
2022-10-23T12:49:51.925Z,59.47
2022-10-23T12:51:26.132Z,59.54
2022-10-23T12:53:01.861Z,59.52
2022-10-23T12:54:39.759Z,59.14
2022-10-23T12:56:13.029Z,59.17
2022-10-23T12:57:46.007Z,59.50
2022-10-23T12:59:20.539Z,59.08
2022-10-23T13:00:54.411Z,59.18
2022-10-23T13:02:27.798Z,59.71
2022-10-23T13:04:23.698Z,59.53
2022-10-23T13:05:58.711Z,59.59
2022-10-23T13:07:33.972Z,59.62
2022-10-23T13:09:22.001Z,59.49
2022-10-23T13:11:15.634Z,59.76
2022-10-23T13:12:53.728Z,59.84
2022-10-23T13:14:34.343Z,60.60
2022-10-23T13:16:14.608Z,60.52
2022-10-23T13:17:58.918Z,60.47
2022-10-23T13:19:30.844Z,60.42
2022-10-23T13:22:34.481Z,60.41
2022-10-23T13:24:20.563Z,60.70
2022-10-23T13:25:54.504Z,60.68
2022-10-23T13:27:31.436Z,60.98
2022-10-23T13:29:08.741Z,61.17
2022-10-23T13:30:43.591Z,61.32
2022-10-23T13:32:22.842Z,61.43
2022-10-23T13:34:14.747Z,61.40
2022-10-23T13:35:55.282Z,61.38
2022-10-23T13:37:29.762Z,61.62
2022-10-23T13:39:04.054Z,61.44
2022-10-23T13:40:37.237Z,61.30
2022-10-23T13:42:13.412Z,61.51
2022-10-23T13:43:48.348Z,61.48
2022-10-23T13:45:21.900Z,61.46
2022-10-23T13:46:53.695Z,61.48
2022-10-23T13:48:25.769Z,61.63
2022-10-23T13:49:57.456Z,61.68
2022-10-23T13:51:32.732Z,61.51
2022-10-23T13:53:05.560Z,61.43
2022-10-23T13:54:37.172Z,61.42
2022-10-23T13:56:12.372Z,61.45
2022-10-23T13:57:44.184Z,61.36
2022-10-23T13:59:17.110Z,61.43
2022-10-23T14:00:50.505Z,61.42
2022-10-23T14:02:23.756Z,61.19
2022-10-23T14:03:57.899Z,61.21
2022-10-23T14:05:29.740Z,61.61
2022-10-23T14:07:01.546Z,61.59
2022-10-23T14:08:33.188Z,61.51
2022-10-23T14:10:05.760Z,61.52
2022-10-23T14:11:38.789Z,61.94
2022-10-23T14:13:10.560Z,61.50
2022-10-23T14:14:42.246Z,61.88
2022-10-23T14:16:15.995Z,62.00
2022-10-23T14:17:47.703Z,62.12
2022-10-23T14:19:19.301Z,62.02
2022-10-23T14:20:51.424Z,61.96
2022-10-23T14:22:23.068Z,62.04
2022-10-23T14:23:55.022Z,62.09
2022-10-23T14:25:26.616Z,62.06
2022-10-23T14:26:59.699Z,62.28
2022-10-23T14:28:31.570Z,62.23
2022-10-23T14:30:03.969Z,62.41
2022-10-23T14:31:35.581Z,62.20
2022-10-23T14:33:07.201Z,62.11
2022-10-23T14:34:41.337Z,62.04
2022-10-23T14:36:13.334Z,62.25
2022-10-23T14:37:45.511Z,62.25
2022-10-23T14:39:17.847Z,62.39
2022-10-23T14:40:49.478Z,62.41
2022-10-23T14:42:22.811Z,62.59
2022-10-23T14:43:54.936Z,62.48
2022-10-23T14:45:26.652Z,62.80
2022-10-23T14:46:59.554Z,62.73
2022-10-23T14:48:31.271Z,62.85
2022-10-23T14:50:03.805Z,63.22
2022-10-23T14:51:35.549Z,63.30
2022-10-23T14:53:07.234Z,63.36
2022-10-23T14:54:39.052Z,63.88
2022-10-23T14:56:10.969Z,64.66
2022-10-23T14:57:44.158Z,65.02
2022-10-23T14:59:16.248Z,65.13
2022-10-23T15:00:57.587Z,65.53
2022-10-23T15:02:29.362Z,65.76
2022-10-23T15:04:01.009Z,65.99
2022-10-23T15:05:32.728Z,66.08
2022-10-23T15:07:04.400Z,66.37
2022-10-23T15:08:36.605Z,66.21
2022-10-23T15:10:09.142Z,66.59
2022-10-23T15:11:41.052Z,67.08
2022-10-23T15:13:14.138Z,67.47
2022-10-23T15:14:45.777Z,67.70
2022-10-23T15:16:17.554Z,68.02
2022-10-23T15:17:49.239Z,68.15
2022-10-23T15:19:20.912Z,68.49
2022-10-23T15:20:52.814Z,69.17
2022-10-23T15:22:24.429Z,69.12
2022-10-23T15:23:56.178Z,69.47
2022-10-23T15:25:27.849Z,69.43
2022-10-23T15:27:00.323Z,69.60
2022-10-23T15:28:33.570Z,69.81
2022-10-23T15:30:06.286Z,69.98
2022-10-23T15:31:49.272Z,70.00
2022-10-23T15:33:21.646Z,70.08
2022-10-23T15:34:54.699Z,70.24
2022-10-23T15:36:27.066Z,70.69
2022-10-23T15:37:58.793Z,70.86
2022-10-23T15:39:35.961Z,70.97
2022-10-23T15:41:15.693Z,71.18
2022-10-23T15:42:49.826Z,71.38
2022-10-23T15:44:24.799Z,71.86
2022-10-23T15:45:56.655Z,71.93
2022-10-23T15:47:28.385Z,72.15
2022-10-23T15:49:00.698Z,72.17
2022-10-23T15:50:32.959Z,72.56
2022-10-23T15:52:04.855Z,72.48
2022-10-23T15:53:36.547Z,73.06
2022-10-23T15:55:11.603Z,73.24
2022-10-23T15:56:43.712Z,73.46
2022-10-23T15:58:15.595Z,73.86
2022-10-23T15:59:48.647Z,74.21
2022-10-23T16:01:20.650Z,74.13
2022-10-23T16:02:52.955Z,74.28
2022-10-23T16:04:24.792Z,74.41
2022-10-23T16:05:56.526Z,74.72
2022-10-23T16:07:28.181Z,74.90
2022-10-23T16:08:59.982Z,74.91
2022-10-23T16:10:31.747Z,74.79
2022-10-23T16:12:03.845Z,75.05
2022-10-23T16:13:35.466Z,75.05
2022-10-23T16:15:09.354Z,75.21
2022-10-23T16:16:41.221Z,75.42
2022-10-23T16:18:15.953Z,75.37
2022-10-23T16:19:47.718Z,75.22
2022-10-23T16:21:21.996Z,75.39
2022-10-23T16:22:54.960Z,75.30
2022-10-23T16:24:26.633Z,75.38
2022-10-23T16:26:02.650Z,75.55
2022-10-23T16:27:34.483Z,75.56
2022-10-23T16:29:08.090Z,75.55
2022-10-23T16:30:42.466Z,75.93
2022-10-23T16:32:14.154Z,76.18
2022-10-23T16:33:46.287Z,76.37
2022-10-23T16:35:18.293Z,76.61
2022-10-23T16:37:01.521Z,76.89
2022-10-23T16:38:55.959Z,77.80
2022-10-23T16:40:51.977Z,77.77
2022-10-23T16:42:52.625Z,77.94
2022-10-23T16:44:37.008Z,77.94
2022-10-23T16:46:14.454Z,78.17
2022-10-23T16:47:46.182Z,78.03
2022-10-23T16:49:17.984Z,78.17
2022-10-23T16:50:49.611Z,78.32
2022-10-23T16:52:21.257Z,78.49
2022-10-23T16:54:14.505Z,78.87
2022-10-23T16:55:46.217Z,79.00
2022-10-23T16:57:17.923Z,79.02
2022-10-23T16:58:49.624Z,79.16
2022-10-23T17:00:22.559Z,79.28
2022-10-23T17:01:55.786Z,79.32
2022-10-23T17:03:27.776Z,79.46
2022-10-23T17:04:59.663Z,79.73
2022-10-23T17:06:35.052Z,79.70
2022-10-23T17:08:06.685Z,79.83
2022-10-23T17:09:38.595Z,79.91
2022-10-23T17:11:13.138Z,80.02
2022-10-23T17:12:45.387Z,80.06
2022-10-23T17:14:19.676Z,80.22
2022-10-23T17:15:51.389Z,80.23
2022-10-23T17:17:24.405Z,80.29
2022-10-23T17:18:56.645Z,80.27
2022-10-23T17:20:28.302Z,80.34
2022-10-23T17:22:00.836Z,80.24
2022-10-23T17:23:32.639Z,80.58
2022-10-23T17:25:05.142Z,80.65
2022-10-23T17:26:37.235Z,80.54
2022-10-23T17:28:08.879Z,80.62
2022-10-23T17:29:40.557Z,80.42
2022-10-23T17:31:17.088Z,80.60
2022-10-23T17:32:50.067Z,80.91
2022-10-23T17:34:23.204Z,81.15
2022-10-23T17:35:54.893Z,81.74
2022-10-23T17:37:26.728Z,81.86
2022-10-23T17:38:58.837Z,82.16
2022-10-23T17:40:32.875Z,82.28
2022-10-23T17:42:04.573Z,82.69
2022-10-23T17:43:37.298Z,82.69
2022-10-23T17:45:09.848Z,83.06
2022-10-23T17:46:41.800Z,82.91
2022-10-23T17:48:16.720Z,83.01
2022-10-23T17:49:48.426Z,83.23
2022-10-23T17:51:21.999Z,83.00
2022-10-23T17:52:53.656Z,83.38
2022-10-23T17:54:27.049Z,83.32
2022-10-23T17:56:22.369Z,83.19
2022-10-23T17:57:54.009Z,83.13
2022-10-23T17:59:25.674Z,83.00
2022-10-23T18:00:57.687Z,83.05
2022-10-23T18:02:29.541Z,82.90
2022-10-23T18:04:06.221Z,82.65
2022-10-23T18:07:15.484Z,82.38
2022-10-23T18:08:48.679Z,82.40
2022-10-23T18:10:20.409Z,82.21
2022-10-23T18:11:52.695Z,82.10
2022-10-23T18:13:24.355Z,82.06
2022-10-23T18:14:56.590Z,82.01
2022-10-23T18:16:28.760Z,82.19
2022-10-23T18:18:00.402Z,82.15
2022-10-23T18:19:34.236Z,82.08
2022-10-23T18:21:06.999Z,82.34
2022-10-23T18:22:38.969Z,82.39
2022-10-23T18:24:11.001Z,82.37
2022-10-23T18:25:43.568Z,82.73
2022-10-23T18:27:15.204Z,82.93
2022-10-23T18:28:49.235Z,83.04
2022-10-23T18:30:20.830Z,82.81
2022-10-23T18:31:52.605Z,83.18
2022-10-23T18:33:24.221Z,83.13
2022-10-23T18:34:57.327Z,83.20
2022-10-23T18:36:32.505Z,83.00
2022-10-23T18:38:04.235Z,82.99
2022-10-23T18:39:35.932Z,83.20
2022-10-23T18:41:07.785Z,82.80
2022-10-23T18:42:39.544Z,83.12
2022-10-23T18:44:15.412Z,82.66
2022-10-23T18:45:47.055Z,82.65
2022-10-23T18:47:18.757Z,82.52
2022-10-23T18:48:50.989Z,82.58
2022-10-23T18:50:24.022Z,82.40
2022-10-23T18:51:55.843Z,82.06
2022-10-23T18:53:28.908Z,81.78
2022-10-23T18:55:00.632Z,81.67
2022-10-23T18:56:34.054Z,81.34
2022-10-23T18:58:06.424Z,81.27
2022-10-23T18:59:38.074Z,80.98
2022-10-23T19:01:09.854Z,80.78
2022-10-23T19:02:41.631Z,80.91
2022-10-23T19:04:15.861Z,80.64
2022-10-23T19:05:51.258Z,80.18
2022-10-23T19:07:22.904Z,80.37
2022-10-23T19:08:54.977Z,79.98
2022-10-23T19:10:29.050Z,80.07
2022-10-23T19:12:02.335Z,80.04
2022-10-23T19:13:38.921Z,79.93
2022-10-23T19:15:11.070Z,80.03
2022-10-23T19:16:46.226Z,79.70
2022-10-23T19:18:17.981Z,79.66
2022-10-23T19:19:53.728Z,79.90
2022-10-23T19:21:31.635Z,79.82
2022-10-23T19:23:06.258Z,79.94
2022-10-23T19:24:40.661Z,80.24
2022-10-23T19:26:13.919Z,80.02
2022-10-23T19:27:47.743Z,80.18
2022-10-23T19:29:23.150Z,80.24
2022-10-23T19:30:54.826Z,80.30
2022-10-23T19:32:26.510Z,80.25
2022-10-23T19:33:58.167Z,79.98
2022-10-23T19:35:29.785Z,80.17
2022-10-23T19:37:02.912Z,79.93
2022-10-23T19:38:34.993Z,80.01
2022-10-23T19:40:08.473Z,80.18
2022-10-23T19:41:40.109Z,79.69
2022-10-23T19:43:11.778Z,79.72
2022-10-23T19:44:43.427Z,79.45
2022-10-23T19:46:16.111Z,79.40
2022-10-23T19:47:48.133Z,79.70
2022-10-23T19:49:20.119Z,79.68
2022-10-23T19:50:51.745Z,79.41
2022-10-23T19:52:24.740Z,79.84
2022-10-23T19:53:56.682Z,79.61
2022-10-23T19:55:28.273Z,79.42
2022-10-23T19:57:02.356Z,79.49
2022-10-23T19:58:34.116Z,79.65
2022-10-23T20:00:07.726Z,79.82
2022-10-23T20:01:45.068Z,79.62
2022-10-23T20:03:20.447Z,79.96
2022-10-23T20:04:52.413Z,79.98
2022-10-23T20:06:26.650Z,79.71
2022-10-23T20:08:00.008Z,79.71
2022-10-23T20:09:31.625Z,79.80
2022-10-23T20:11:05.466Z,79.78
2022-10-23T20:12:37.072Z,79.51
2022-10-23T20:14:08.884Z,79.59
2022-10-23T20:15:40.567Z,79.76
2022-10-23T20:17:12.216Z,79.96
2022-10-23T20:18:43.882Z,79.97
2022-10-23T20:20:15.715Z,80.05
2022-10-23T20:21:49.015Z,79.79
2022-10-23T20:23:22.064Z,79.94
2022-10-23T20:24:53.746Z,79.83
2022-10-23T20:26:25.568Z,79.72
2022-10-23T20:27:57.391Z,79.63
2022-10-23T20:29:29.788Z,80.39
2022-10-23T20:31:05.692Z,80.40
2022-10-23T20:32:37.335Z,79.99
2022-10-23T20:34:09.105Z,79.61
2022-10-23T20:35:41.883Z,79.77
2022-10-23T20:37:13.566Z,79.96
2022-10-23T20:38:46.585Z,80.20
2022-10-23T20:40:18.499Z,79.83
2022-10-23T20:41:50.206Z,79.58
2022-10-23T20:43:21.868Z,79.72
2022-10-23T20:44:53.555Z,79.74
2022-10-23T20:46:25.929Z,79.69
2022-10-23T20:47:57.646Z,79.68
2022-10-23T20:49:29.435Z,79.69
2022-10-23T20:51:02.729Z,79.73